createdAt,value
2018-02-21T00:00:17.007Z,0.00
2018-02-21T00:01:17.100Z,0.00
2018-02-21T00:02:17.094Z,0.00
2018-02-21T00:03:17.138Z,0.00
2018-02-21T00:04:17.181Z,0.00
2018-02-21T00:05:17.201Z,0.00
2018-02-21T00:06:17.238Z,0.00
2018-02-21T00:07:17.277Z,0.00
2018-02-21T00:08:17.316Z,0.00
2018-02-21T00:09:17.374Z,0.00
2018-02-21T00:10:17.392Z,0.00
2018-02-21T00:11:17.430Z,0.00
2018-02-21T00:12:17.475Z,0.00
2018-02-21T00:13:17.510Z,0.00
2018-02-21T00:14:17.563Z,0.00
2018-02-21T00:15:17.583Z,0.00
2018-02-21T00:16:17.622Z,0.00
2018-02-21T00:17:17.662Z,0.00
2018-02-21T00:18:17.699Z,0.00
2018-02-21T00:19:17.756Z,0.00
2018-02-21T00:20:17.776Z,0.00
2018-02-21T00:21:17.814Z,0.00
2018-02-21T00:22:17.852Z,0.00
2018-02-21T00:23:17.890Z,0.00
2018-02-21T00:24:17.945Z,0.00
2018-02-21T00:25:17.987Z,0.00
2018-02-21T00:26:18.005Z,0.00
2018-02-21T00:27:18.044Z,0.00
2018-02-21T00:28:18.084Z,0.00
2018-02-21T00:29:18.122Z,0.00
2018-02-21T00:30:18.179Z,0.00
2018-02-21T00:31:18.212Z,0.00
2018-02-21T00:32:18.236Z,0.00
2018-02-21T00:33:18.276Z,0.00
2018-02-21T00:34:18.313Z,0.00
2018-02-21T00:35:18.369Z,0.00
2018-02-21T00:36:18.394Z,0.00
2018-02-21T00:37:18.436Z,0.00
2018-02-21T00:38:18.464Z,0.00
2018-02-21T00:39:18.502Z,0.00
2018-02-21T00:40:18.557Z,0.00
2018-02-21T00:41:18.580Z,0.00
2018-02-21T00:42:18.637Z,0.00
2018-02-21T00:43:18.655Z,0.00
2018-02-21T00:44:18.695Z,0.00
2018-02-21T00:45:18.735Z,0.00
2018-02-21T00:46:18.768Z,0.00
2018-02-21T00:47:18.827Z,0.00
2018-02-21T00:48:18.847Z,0.00
2018-02-21T00:49:18.883Z,0.00
2018-02-21T00:50:18.921Z,0.00
2018-02-21T00:51:18.966Z,0.00
2018-02-21T00:52:19.013Z,0.00
2018-02-21T00:53:19.035Z,0.00
2018-02-21T00:54:19.077Z,0.00
2018-02-21T00:55:19.110Z,0.00
2018-02-21T00:56:19.174Z,0.00
2018-02-21T00:57:19.186Z,0.00
2018-02-21T00:58:19.226Z,0.00
2018-02-21T00:59:19.263Z,0.00
2018-02-21T01:00:19.303Z,0.00
2018-02-21T01:01:19.834Z,0.00
2018-02-21T01:02:19.377Z,0.00
2018-02-21T01:03:19.413Z,0.00
2018-02-21T01:04:19.454Z,0.00
2018-02-21T01:05:19.491Z,0.00
2018-02-21T01:06:19.542Z,0.00
2018-02-21T01:07:19.564Z,0.00
2018-02-21T01:08:19.622Z,0.00
2018-02-21T01:09:19.641Z,0.00
2018-02-21T01:10:19.680Z,0.00
2018-02-21T01:11:19.715Z,0.00
2018-02-21T01:12:19.754Z,0.00
2018-02-21T01:13:19.807Z,0.00
2018-02-21T01:14:19.831Z,0.00
2018-02-21T01:15:19.875Z,0.00
2018-02-21T01:16:19.903Z,0.00
2018-02-21T01:17:19.942Z,0.00
2018-02-21T01:18:19.996Z,0.00
2018-02-21T01:19:20.021Z,0.00
2018-02-21T01:20:20.055Z,0.00
2018-02-21T01:21:20.099Z,0.00
2018-02-21T01:22:20.151Z,0.00
2018-02-21T01:23:20.167Z,0.00
2018-02-21T01:24:20.213Z,0.00
2018-02-21T01:25:20.245Z,0.00
2018-02-21T01:26:20.279Z,0.00
2018-02-21T01:27:20.341Z,0.00
2018-02-21T01:28:20.354Z,0.00
2018-02-21T01:29:20.392Z,0.00
2018-02-21T01:30:20.428Z,0.00
2018-02-21T01:31:20.465Z,0.00
2018-02-21T01:32:20.523Z,0.00
2018-02-21T01:33:20.541Z,0.00
2018-02-21T01:34:20.580Z,0.00
2018-02-21T01:35:20.622Z,0.00
2018-02-21T01:36:20.655Z,0.00
2018-02-21T01:37:20.711Z,0.00
2018-02-21T01:38:20.730Z,0.00
2018-02-21T01:39:20.765Z,0.00
2018-02-21T01:40:20.802Z,0.00
2018-02-21T01:41:20.844Z,0.00
2018-02-21T01:42:20.899Z,0.00
2018-02-21T01:43:20.914Z,0.00
2018-02-21T01:44:20.952Z,0.00
2018-02-21T01:45:20.990Z,0.00
2018-02-21T01:46:21.028Z,0.00
2018-02-21T01:47:21.079Z,0.00
2018-02-21T01:48:21.102Z,0.00
2018-02-21T01:49:21.138Z,0.00
2018-02-21T01:50:21.177Z,0.00
2018-02-21T01:51:21.214Z,0.00
2018-02-21T01:52:21.266Z,0.00
2018-02-21T01:53:21.289Z,0.00
2018-02-21T01:54:21.327Z,0.00
2018-02-21T01:55:21.362Z,0.00
2018-02-21T01:56:21.398Z,0.00
2018-02-21T01:57:21.455Z,0.00
2018-02-21T01:58:21.476Z,0.00
2018-02-21T01:59:21.510Z,0.00
2018-02-21T02:00:21.548Z,0.00
2018-02-21T02:01:21.606Z,0.00
2018-02-21T02:02:21.623Z,0.00
2018-02-21T02:03:21.677Z,0.00
2018-02-21T02:04:21.700Z,0.00
2018-02-21T02:05:21.735Z,0.00
2018-02-21T02:06:21.772Z,0.00
2018-02-21T02:07:21.825Z,0.00
2018-02-21T02:08:21.855Z,0.00
2018-02-21T02:09:21.904Z,0.00
2018-02-21T02:10:21.920Z,0.00
2018-02-21T02:11:21.958Z,0.00
2018-02-21T02:12:21.997Z,0.00
2018-02-21T02:13:22.051Z,0.00
2018-02-21T02:14:22.077Z,0.00
2018-02-21T02:15:22.116Z,0.00
2018-02-21T02:16:22.150Z,0.00
2018-02-21T02:17:22.202Z,0.00
2018-02-21T02:18:22.224Z,0.00
2018-02-21T02:19:22.257Z,0.00
2018-02-21T02:20:23.124Z,0.00
2018-02-21T02:21:22.335Z,0.00
2018-02-21T02:22:22.391Z,0.00
2018-02-21T02:23:22.406Z,0.00
2018-02-21T02:24:22.446Z,0.00
2018-02-21T02:25:22.483Z,0.00
2018-02-21T02:26:22.537Z,0.00
2018-02-21T02:27:22.556Z,0.00
2018-02-21T02:28:22.595Z,0.00
2018-02-21T02:29:22.631Z,0.00
2018-02-21T02:30:22.669Z,0.00
2018-02-21T02:31:22.724Z,0.00
2018-02-21T02:32:22.743Z,0.00
2018-02-21T02:33:22.781Z,0.00
2018-02-21T02:34:22.822Z,0.00
2018-02-21T02:35:22.856Z,0.00
2018-02-21T02:36:22.910Z,0.00
2018-02-21T02:37:22.932Z,0.00
2018-02-21T02:38:22.974Z,0.00
2018-02-21T02:39:23.006Z,0.00
2018-02-21T02:40:23.043Z,0.00
2018-02-21T02:41:23.092Z,0.00
2018-02-21T02:42:23.116Z,0.00
2018-02-21T02:43:23.156Z,0.00
2018-02-21T02:44:23.193Z,0.00
2018-02-21T02:45:23.230Z,0.00
2018-02-21T02:46:23.285Z,0.00
2018-02-21T02:47:23.324Z,0.00
2018-02-21T02:48:23.348Z,0.00
2018-02-21T02:49:23.381Z,0.00
2018-02-21T02:50:23.416Z,0.00
2018-02-21T02:51:23.454Z,0.00
2018-02-21T02:52:23.510Z,0.00
2018-02-21T02:53:23.532Z,0.00
2018-02-21T02:54:23.566Z,0.00
2018-02-21T02:55:23.604Z,0.00
2018-02-21T02:56:23.644Z,0.00
2018-02-21T02:57:23.696Z,0.00
2018-02-21T02:58:23.718Z,0.00
2018-02-21T02:59:23.769Z,0.00
2018-02-21T03:00:23.791Z,0.00
2018-02-21T03:01:23.828Z,0.00
2018-02-21T03:02:23.867Z,0.00
2018-02-21T03:03:23.904Z,0.00
2018-02-21T03:04:23.958Z,0.00
2018-02-21T03:05:23.980Z,0.00
2018-02-21T03:06:24.015Z,0.00
2018-02-21T03:07:24.071Z,0.00
2018-02-21T03:08:24.093Z,0.00
2018-02-21T03:09:24.144Z,0.00
2018-02-21T03:10:24.167Z,0.00
2018-02-21T03:11:24.205Z,0.00
2018-02-21T03:12:24.241Z,0.00
2018-02-21T03:13:24.280Z,0.00
2018-02-21T03:14:24.331Z,0.00
2018-02-21T03:15:24.354Z,0.00
2018-02-21T03:16:24.393Z,0.00
2018-02-21T03:17:24.430Z,0.00
2018-02-21T03:18:24.481Z,0.00
2018-02-21T03:19:24.512Z,0.00
2018-02-21T03:20:24.557Z,0.00
2018-02-21T03:21:24.579Z,0.00
2018-02-21T03:22:24.615Z,0.00
2018-02-21T03:23:24.660Z,0.00
2018-02-21T03:24:24.713Z,0.00
2018-02-21T03:25:24.730Z,0.00
2018-02-21T03:26:24.767Z,0.00
2018-02-21T03:27:24.804Z,0.00
2018-02-21T03:28:24.843Z,0.00
2018-02-21T03:29:24.903Z,0.00
2018-02-21T03:30:24.922Z,0.00
2018-02-21T03:31:24.958Z,0.00
2018-02-21T03:32:24.993Z,0.00
2018-02-21T03:33:25.034Z,0.00
2018-02-21T03:34:25.084Z,0.00
2018-02-21T03:35:25.105Z,0.00
2018-02-21T03:36:25.157Z,0.00
2018-02-21T03:37:25.180Z,0.00
2018-02-21T03:38:25.218Z,0.00
2018-02-21T03:39:25.258Z,0.00
2018-02-21T03:40:25.300Z,0.00
2018-02-21T03:41:25.350Z,0.00
2018-02-21T03:42:25.368Z,0.00
2018-02-21T03:43:25.413Z,0.00
2018-02-21T03:44:25.447Z,0.00
2018-02-21T03:45:25.484Z,0.00
2018-02-21T03:46:25.540Z,0.00
2018-02-21T03:47:25.558Z,0.00
2018-02-21T03:48:25.596Z,0.00
2018-02-21T03:49:25.634Z,0.00
2018-02-21T03:50:25.679Z,0.00
2018-02-21T03:51:25.732Z,0.00
2018-02-21T03:52:25.746Z,0.00
2018-02-21T03:53:25.785Z,0.00
2018-02-21T03:54:25.824Z,0.00
2018-02-21T03:55:25.862Z,0.00
2018-02-21T03:56:25.917Z,0.00
2018-02-21T03:57:25.937Z,0.00
2018-02-21T03:58:25.973Z,0.00
2018-02-21T03:59:27.610Z,0.00
2018-02-21T04:00:26.051Z,0.00
2018-02-21T04:01:26.107Z,0.00
2018-02-21T04:02:26.127Z,0.00
2018-02-21T04:03:26.166Z,0.00
2018-02-21T04:04:26.204Z,0.00
2018-02-21T04:05:26.241Z,0.00
2018-02-21T04:06:26.295Z,0.00
2018-02-21T04:07:26.318Z,0.00
2018-02-21T04:08:26.355Z,0.00
2018-02-21T04:09:26.395Z,0.00
2018-02-21T04:10:26.430Z,0.00
2018-02-21T04:11:26.495Z,0.00
2018-02-21T04:12:26.506Z,0.00
2018-02-21T04:13:26.545Z,0.00
2018-02-21T04:14:26.584Z,0.00
2018-02-21T04:15:26.623Z,0.00
2018-02-21T04:16:26.678Z,0.00
2018-02-21T04:17:26.698Z,0.00
2018-02-21T04:18:26.734Z,0.00
2018-02-21T04:19:26.778Z,0.00
2018-02-21T04:20:26.814Z,0.00
2018-02-21T04:21:26.869Z,0.00
2018-02-21T04:22:26.888Z,0.00
2018-02-21T04:23:26.929Z,0.00
2018-02-21T04:24:26.964Z,0.00
2018-02-21T04:25:27.018Z,0.00
2018-02-21T04:26:27.041Z,0.00
2018-02-21T04:27:27.097Z,0.00
2018-02-21T04:28:27.118Z,0.00
2018-02-21T04:29:27.162Z,0.00
2018-02-21T04:30:27.196Z,0.00
2018-02-21T04:31:27.233Z,0.00
2018-02-21T04:32:27.291Z,0.00
2018-02-21T04:33:27.310Z,0.00
2018-02-21T04:34:27.351Z,0.00
2018-02-21T04:35:27.384Z,0.00
2018-02-21T04:36:27.449Z,0.00
2018-02-21T04:37:27.462Z,0.00
2018-02-21T04:38:27.506Z,0.00
2018-02-21T04:39:27.538Z,0.00
2018-02-21T04:40:27.577Z,0.00
2018-02-21T04:41:27.630Z,0.00
2018-02-21T04:42:27.662Z,0.00
2018-02-21T04:43:27.699Z,0.00
2018-02-21T04:44:27.743Z,0.00
2018-02-21T04:45:27.771Z,0.00
2018-02-21T04:46:27.805Z,0.00
2018-02-21T04:47:27.860Z,0.00
2018-02-21T04:48:27.881Z,0.00
2018-02-21T04:49:27.920Z,0.00
2018-02-21T04:50:27.957Z,0.00
2018-02-21T04:51:27.995Z,0.00
2018-02-21T04:52:28.050Z,0.00
2018-02-21T04:53:28.073Z,0.00
2018-02-21T04:54:28.110Z,0.00
2018-02-21T04:55:28.170Z,0.00
2018-02-21T04:56:28.193Z,0.00
2018-02-21T04:57:28.232Z,0.00
2018-02-21T04:58:28.277Z,0.00
2018-02-21T04:59:28.301Z,0.00
2018-02-21T05:00:28.341Z,0.00
2018-02-21T05:01:28.380Z,0.00
2018-02-21T05:02:28.417Z,0.00
2018-02-21T05:03:28.469Z,0.00
2018-02-21T05:04:28.512Z,0.00
2018-02-21T05:05:28.531Z,0.00
2018-02-21T05:06:28.569Z,0.00
2018-02-21T05:07:28.610Z,0.00
2018-02-21T05:08:28.644Z,0.00
2018-02-21T05:09:28.707Z,0.00
2018-02-21T05:10:28.718Z,0.00
2018-02-21T05:11:28.759Z,0.00
2018-02-21T05:12:28.797Z,0.00
2018-02-21T05:13:28.833Z,0.00
2018-02-21T05:14:28.889Z,0.00
2018-02-21T05:15:28.933Z,0.00
2018-02-21T05:16:28.950Z,0.00
2018-02-21T05:17:28.989Z,0.00
2018-02-21T05:20:04.799Z,0.00
2018-02-21T05:21:04.826Z,0.00
2018-02-21T05:22:04.857Z,0.00
2018-02-21T05:23:04.891Z,0.00
2018-02-21T05:24:04.929Z,0.00
2018-02-21T05:25:04.965Z,0.00
2018-02-21T05:26:05.019Z,0.00
2018-02-21T05:27:05.049Z,0.00
2018-02-21T05:28:05.080Z,0.00
2018-02-21T05:29:05.116Z,0.00
2018-02-21T05:30:05.159Z,0.00
2018-02-21T05:31:05.211Z,0.00
2018-02-21T05:32:05.236Z,0.00
2018-02-21T05:33:05.272Z,0.00
2018-02-21T05:34:05.311Z,0.00
2018-02-21T05:35:05.346Z,0.00
2018-02-21T05:36:05.400Z,0.00
2018-02-21T05:37:05.425Z,0.00
2018-02-21T05:38:05.460Z,0.00
2018-02-21T05:39:05.499Z,0.00
2018-02-21T05:40:05.536Z,0.00
2018-02-21T05:41:05.591Z,0.00
2018-02-21T05:42:05.614Z,0.00
2018-02-21T05:43:05.650Z,0.00
2018-02-21T05:44:05.702Z,0.00
2018-02-21T05:45:05.729Z,0.00
2018-02-21T05:46:05.784Z,0.00
2018-02-21T05:47:05.818Z,0.00
2018-02-21T05:49:42.102Z,0.00
2018-02-21T05:50:42.125Z,4.00
2018-02-21T05:51:42.177Z,4.00
2018-02-21T05:52:42.198Z,8.00
2018-02-21T05:53:42.233Z,8.00
2018-02-21T05:54:42.272Z,8.00
2018-02-21T05:55:42.310Z,12.00
2018-02-21T05:56:42.364Z,12.00
2018-02-21T05:57:42.391Z,12.00
2018-02-21T05:58:42.425Z,16.00
2018-02-21T05:59:42.461Z,20.00
2018-02-21T06:00:42.505Z,24.00
2018-02-21T06:01:42.556Z,32.00
2018-02-21T06:02:42.578Z,36.00
2018-02-21T06:03:42.617Z,48.00
2018-02-21T06:04:42.654Z,56.00
2018-02-21T06:05:42.691Z,68.00
2018-02-21T06:06:42.756Z,80.00
2018-02-21T06:07:42.765Z,92.00
2018-02-21T06:08:42.816Z,108.00
2018-02-21T06:09:42.843Z,124.00
2018-02-21T06:10:42.884Z,144.00
2018-02-21T06:11:42.938Z,164.00
2018-02-21T06:12:42.957Z,184.00
2018-02-21T06:13:42.993Z,212.00
2018-02-21T06:14:43.031Z,240.00
2018-02-21T06:15:43.069Z,268.00
2018-02-21T06:16:43.131Z,300.00
2018-02-21T06:17:43.152Z,332.00
2018-02-21T06:20:19.337Z,420.00
2018-02-21T06:21:19.360Z,468.00
2018-02-21T06:22:19.416Z,508.00
2018-02-21T06:23:19.435Z,564.00
2018-02-21T06:24:19.474Z,616.00
2018-02-21T06:25:19.516Z,664.00
2018-02-21T06:26:19.548Z,700.00
2018-02-21T06:27:19.603Z,756.00
2018-02-21T06:28:19.625Z,816.00
2018-02-21T06:29:19.663Z,888.00
2018-02-21T06:30:19.709Z,968.00
2018-02-21T06:31:19.738Z,1020.00
2018-02-21T06:32:19.961Z,1088.00
2018-02-21T06:33:19.817Z,1152.00
2018-02-21T06:34:19.867Z,1244.00
2018-02-21T06:35:19.890Z,1340.00
2018-02-21T06:36:19.927Z,1436.00
2018-02-21T06:37:19.987Z,1552.00
2018-02-21T06:38:20.004Z,1684.00
2018-02-21T06:39:20.040Z,1812.00
2018-02-21T06:40:20.079Z,1968.00
2018-02-21T06:41:20.117Z,2116.00
2018-02-21T06:42:20.174Z,2256.00
2018-02-21T06:43:20.193Z,2368.00
2018-02-21T06:44:20.248Z,2452.00
2018-02-21T06:45:20.270Z,2552.00
2018-02-21T06:46:20.308Z,2648.00
2018-02-21T06:47:20.345Z,2732.00
2018-02-21T06:48:20.399Z,2772.00
2018-02-21T06:49:20.438Z,2884.00
2018-02-21T06:50:20.460Z,3020.00
2018-02-21T06:51:20.497Z,3140.00
2018-02-21T06:52:20.536Z,3240.00
2018-02-21T06:53:20.574Z,3288.00
2018-02-21T06:54:20.637Z,3424.00
2018-02-21T06:55:20.650Z,3484.00
2018-02-21T06:56:20.689Z,3636.00
2018-02-21T06:57:20.729Z,3864.00
2018-02-21T06:58:20.765Z,3960.00
2018-02-21T06:59:20.838Z,4048.00
2018-02-21T07:00:20.841Z,4232.00
2018-02-21T07:01:20.879Z,4380.00
2018-02-21T07:02:20.919Z,4496.00
2018-02-21T07:04:56.673Z,5020.00
2018-02-21T07:05:56.695Z,5156.00
2018-02-21T07:06:56.743Z,5324.00
2018-02-21T07:07:56.772Z,5536.00
2018-02-21T07:08:56.812Z,5540.00
2018-02-21T07:09:56.868Z,5796.00
2018-02-21T07:10:56.886Z,5804.00
2018-02-21T07:11:56.925Z,6024.00
2018-02-21T07:12:56.964Z,6004.00
2018-02-21T07:13:57.003Z,6180.00
2018-02-21T07:14:57.060Z,6388.00
2018-02-21T07:15:57.095Z,6504.00
2018-02-21T07:16:57.120Z,6560.00
2018-02-21T07:17:57.158Z,6812.00
2018-02-21T07:18:57.194Z,6888.00
2018-02-21T07:19:57.236Z,7084.00
2018-02-21T07:20:57.292Z,7492.00
2018-02-21T07:21:57.315Z,8100.00
2018-02-21T07:22:57.350Z,7912.00
2018-02-21T07:23:57.390Z,8116.00
2018-02-21T07:24:57.429Z,8696.00
2018-02-21T07:25:57.486Z,8932.00
2018-02-21T07:26:57.504Z,9616.00
2018-02-21T07:27:57.544Z,9920.00
2018-02-21T07:28:57.583Z,9436.00
2018-02-21T07:29:57.622Z,10760.00
2018-02-21T07:30:57.687Z,10968.00
2018-02-21T07:31:57.698Z,10904.00
2018-02-21T07:32:57.736Z,11880.00
2018-02-21T07:33:57.777Z,10600.00
2018-02-21T07:34:57.817Z,10736.00
2018-02-21T07:35:57.881Z,12092.00
2018-02-21T07:36:57.909Z,11512.00
2018-02-21T07:37:57.942Z,10336.00
2018-02-21T07:38:57.971Z,13076.00
2018-02-21T07:39:58.009Z,13168.00
2018-02-21T07:40:58.052Z,14160.00
2018-02-21T07:41:58.109Z,14552.00
2018-02-21T07:42:58.129Z,13620.00
2018-02-21T07:43:58.172Z,15072.00
2018-02-21T07:44:58.213Z,14848.00
2018-02-21T07:45:58.254Z,14912.00
2018-02-21T07:46:58.311Z,16992.00
2018-02-21T07:47:58.334Z,17312.00
2018-02-21T07:48:58.441Z,16192.00
2018-02-21T07:49:58.408Z,17280.00
2018-02-21T07:50:58.452Z,18720.00
2018-02-21T07:51:58.521Z,16448.00
2018-02-21T07:52:58.533Z,15872.00
2018-02-21T07:53:58.572Z,18240.00
2018-02-21T07:54:58.614Z,18304.00
2018-02-21T07:55:58.653Z,16416.00
2018-02-21T07:56:58.715Z,16800.00
2018-02-21T07:57:58.740Z,19904.00
2018-02-21T07:58:58.794Z,21088.00
2018-02-21T07:59:58.819Z,19392.00
2018-02-21T08:00:58.926Z,19712.00
2018-02-21T08:01:58.900Z,22048.00
2018-02-21T08:02:58.957Z,22176.00
2018-02-21T08:03:59.000Z,21088.00
2018-02-21T08:04:59.078Z,23360.00
2018-02-21T08:05:59.080Z,24096.00
2018-02-21T08:06:59.114Z,21824.00
2018-02-21T08:07:59.147Z,21792.00
2018-02-21T08:08:59.188Z,22592.00
2018-02-21T08:09:59.231Z,22240.00
2018-02-21T08:10:59.287Z,22656.00
2018-02-21T08:11:59.314Z,23488.00
2018-02-21T08:12:59.358Z,25696.00
2018-02-21T08:13:59.400Z,24288.00
2018-02-21T08:14:59.439Z,15244.00
2018-02-21T08:15:59.498Z,26208.00
2018-02-21T08:16:59.523Z,23264.00
2018-02-21T08:17:59.567Z,27744.00
2018-02-21T08:18:59.617Z,27712.00
2018-02-21T08:19:59.651Z,15552.00
2018-02-21T08:20:59.705Z,23232.00
2018-02-21T08:21:59.739Z,27040.00
2018-02-21T08:22:59.798Z,25440.00
2018-02-21T08:23:59.819Z,28768.00
2018-02-21T08:24:59.862Z,26336.00
2018-02-21T08:25:59.910Z,29600.00
2018-02-21T08:26:59.947Z,27840.00
2018-02-21T08:28:00.009Z,28224.00
2018-02-21T08:29:00.028Z,27616.00
2018-02-21T08:30:00.072Z,25536.00
2018-02-21T08:31:00.112Z,26496.00
2018-02-21T08:32:00.154Z,31360.00
2018-02-21T08:33:00.215Z,33408.00
2018-02-21T08:34:00.243Z,33440.00
2018-02-21T08:35:00.288Z,31104.00
2018-02-21T08:36:00.326Z,30784.00
2018-02-21T08:37:00.368Z,33984.00
2018-02-21T08:38:00.427Z,35136.00
2018-02-21T08:39:00.454Z,32640.00
2018-02-21T08:40:00.502Z,30304.00
2018-02-21T08:41:00.538Z,30656.00
2018-02-21T08:42:00.589Z,34688.00
2018-02-21T08:43:00.640Z,40544.00
2018-02-21T08:44:00.668Z,43744.00
2018-02-21T08:45:00.710Z,40672.00
2018-02-21T08:46:00.778Z,34944.00
2018-02-21T08:47:00.800Z,32800.00
2018-02-21T08:48:00.860Z,38080.00
2018-02-21T08:50:37.179Z,41152.00
2018-02-21T08:51:37.206Z,37056.00
2018-02-21T08:52:37.250Z,39584.00
2018-02-21T08:53:37.835Z,41408.00
2018-02-21T08:54:37.337Z,41952.00
2018-02-21T08:55:37.383Z,43040.00
2018-02-21T08:56:37.426Z,43616.00
2018-02-21T08:57:37.469Z,45024.00
2018-02-21T08:58:37.538Z,47104.00
2018-02-21T08:59:37.558Z,41568.00
2018-02-21T09:00:37.604Z,37536.00
2018-02-21T09:01:37.648Z,34144.00
2018-02-21T09:02:37.691Z,44000.00
2018-02-21T09:03:37.764Z,47680.00
2018-02-21T09:04:37.781Z,41536.00
2018-02-21T09:05:37.825Z,39488.00
2018-02-21T09:06:37.872Z,45504.00
2018-02-21T09:07:37.917Z,55712.00
2018-02-21T09:08:38.021Z,60128.00
2018-02-21T09:09:38.020Z,56992.00
2018-02-21T09:10:38.051Z,49600.00
2018-02-21T09:11:38.098Z,50048.00
2018-02-21T09:12:38.143Z,51008.00
2018-02-21T09:13:38.182Z,53344.00
2018-02-21T09:14:38.246Z,54016.00
2018-02-21T09:15:38.274Z,55584.00
2018-02-21T09:16:38.338Z,55744.00
2018-02-21T09:17:38.368Z,56256.00
2018-02-21T09:18:38.409Z,55200.00
2018-02-21T09:19:38.475Z,57408.00
2018-02-21T09:20:38.501Z,55904.00
2018-02-21T09:21:38.546Z,48032.00
2018-02-21T09:22:38.592Z,44992.00
2018-02-21T09:23:38.644Z,44736.00
2018-02-21T09:24:38.717Z,51744.00
2018-02-21T09:25:38.731Z,57024.00
2018-02-21T09:26:38.773Z,64416.00
2018-02-21T09:27:38.816Z,66752.00
2018-02-21T09:28:38.864Z,67296.00
2018-02-21T09:29:38.926Z,59488.00
2018-02-21T09:30:38.958Z,57472.00
2018-02-21T09:31:39.004Z,55392.00
2018-02-21T09:32:39.064Z,57216.00
2018-02-21T09:33:39.095Z,59232.00
2018-02-21T09:34:39.143Z,61504.00
2018-02-21T09:35:39.184Z,65248.00
2018-02-21T09:36:39.234Z,69440.00
2018-02-21T09:37:39.295Z,70176.00
2018-02-21T09:38:39.322Z,67200.00
2018-02-21T09:39:39.366Z,64032.00
2018-02-21T09:40:39.667Z,59392.00
2018-02-21T09:41:39.462Z,57408.00
2018-02-21T09:42:39.507Z,59648.00
2018-02-21T09:43:39.555Z,18228.00
2018-02-21T09:44:39.602Z,67168.00
2018-02-21T09:45:39.663Z,69312.00
2018-02-21T09:46:39.699Z,65216.00
2018-02-21T09:47:39.739Z,67552.00
2018-02-21T09:48:39.788Z,72064.00
2018-02-21T09:49:39.831Z,23424.00
2018-02-21T09:50:39.897Z,37472.00
2018-02-21T09:51:39.925Z,36768.00
2018-02-21T09:52:39.972Z,18588.00
2018-02-21T09:53:40.054Z,20576.00
2018-02-21T09:54:40.062Z,19424.00
2018-02-21T09:55:40.108Z,24960.00
2018-02-21T09:56:40.155Z,67520.00
2018-02-21T09:57:40.200Z,70016.00
2018-02-21T09:58:40.262Z,68064.00
2018-02-21T09:59:41.339Z,70272.00
2018-02-21T10:00:40.354Z,53440.00
2018-02-21T10:01:40.381Z,34656.00
2018-02-21T10:02:40.428Z,22272.00
2018-02-21T10:03:40.474Z,59392.00
2018-02-21T10:04:40.521Z,70816.00
2018-02-21T10:05:40.583Z,79616.00
2018-02-21T10:06:40.608Z,28064.00
2018-02-21T10:07:40.654Z,62560.00
2018-02-21T10:08:40.715Z,76544.00
2018-02-21T10:09:40.746Z,63648.00
2018-02-21T10:10:40.790Z,63488.00
2018-02-21T10:11:40.853Z,67104.00
2018-02-21T10:12:40.884Z,36192.00
2018-02-21T10:13:40.929Z,75072.00
2018-02-21T10:14:40.978Z,27904.00
2018-02-21T10:15:41.026Z,70400.00
2018-02-21T10:16:41.083Z,57664.00
2018-02-21T10:17:41.114Z,39968.00
2018-02-21T10:18:41.159Z,72736.00
2018-02-21T10:19:41.204Z,81440.00
2018-02-21T10:20:41.250Z,35168.00
2018-02-21T10:21:41.314Z,58368.00
2018-02-21T10:22:41.348Z,70464.00
2018-02-21T10:23:41.400Z,33280.00
2018-02-21T10:24:41.434Z,89568.00
2018-02-21T10:25:41.480Z,89888.00
2018-02-21T10:26:41.549Z,61184.00
2018-02-21T10:27:41.579Z,82208.00
2018-02-21T10:28:41.621Z,81760.00
2018-02-21T10:29:41.668Z,76448.00
2018-02-21T10:30:41.714Z,68928.00
2018-02-21T10:31:41.779Z,47456.00
2018-02-21T10:32:41.818Z,57376.00
2018-02-21T10:33:41.871Z,57760.00
2018-02-21T10:34:41.906Z,72128.00
2018-02-21T10:35:41.948Z,78720.00
2018-02-21T10:36:41.994Z,19680.00
2018-02-21T10:37:42.060Z,22400.00
2018-02-21T10:38:42.089Z,23328.00
2018-02-21T10:39:42.138Z,26912.00
2018-02-21T10:40:42.185Z,25728.00
2018-02-21T10:41:42.226Z,24672.00
2018-02-21T10:42:42.287Z,38752.00
2018-02-21T10:43:42.336Z,35680.00
2018-02-21T10:44:42.364Z,67104.00
2018-02-21T10:45:42.414Z,100864.00
2018-02-21T10:46:42.454Z,96224.00
2018-02-21T10:47:42.500Z,78080.00
2018-02-21T10:48:42.618Z,87712.00
2018-02-21T10:49:42.590Z,88448.00
2018-02-21T10:50:42.639Z,63264.00
2018-02-21T10:51:42.684Z,93760.00
2018-02-21T10:52:42.728Z,61920.00
2018-02-21T10:53:42.793Z,48192.00
2018-02-21T10:54:42.821Z,35648.00
2018-02-21T10:55:42.868Z,34528.00
2018-02-21T10:56:42.918Z,64352.00
2018-02-21T10:57:42.963Z,34592.00
2018-02-21T10:58:43.023Z,71520.00
2018-02-21T10:59:43.051Z,53280.00
2018-02-21T11:00:43.112Z,23008.00
2018-02-21T11:01:43.142Z,27648.00
2018-02-21T11:02:43.189Z,96128.00
2018-02-21T11:03:43.260Z,35040.00
2018-02-21T11:04:43.277Z,29536.00
2018-02-21T11:05:43.326Z,29184.00
2018-02-21T11:06:43.367Z,37376.00
2018-02-21T11:07:43.416Z,33632.00
2018-02-21T11:08:43.480Z,35200.00
2018-02-21T11:09:43.509Z,80672.00
2018-02-21T11:10:43.552Z,77920.00
2018-02-21T11:11:43.605Z,46208.00
2018-02-21T11:12:43.644Z,70240.00
2018-02-21T11:13:43.704Z,85632.00
2018-02-21T11:14:43.733Z,27936.00
2018-02-21T11:15:43.787Z,28352.00
2018-02-21T11:16:43.827Z,35072.00
2018-02-21T11:17:43.873Z,41408.00
2018-02-21T11:18:43.934Z,38816.00
2018-02-21T11:19:43.961Z,64288.00
2018-02-21T11:20:44.008Z,65952.00
2018-02-21T11:21:44.056Z,39840.00
2018-02-21T11:22:44.102Z,88160.00
2018-02-21T11:23:44.207Z,84352.00
2018-02-21T11:24:44.191Z,86880.00
2018-02-21T11:25:44.235Z,89920.00
2018-02-21T11:26:44.283Z,78528.00
2018-02-21T11:27:44.325Z,54272.00
2018-02-21T11:28:44.388Z,56576.00
2018-02-21T11:29:44.420Z,55936.00
2018-02-21T11:30:44.468Z,88992.00
2018-02-21T11:31:44.514Z,96640.00
2018-02-21T11:32:44.575Z,79360.00
2018-02-21T11:33:44.609Z,81568.00
2018-02-21T11:34:44.653Z,27584.00
2018-02-21T11:35:44.697Z,46080.00
2018-02-21T11:36:44.745Z,90688.00
2018-02-21T11:37:44.807Z,84384.00
2018-02-21T11:38:44.837Z,67840.00
2018-02-21T11:39:44.883Z,74144.00
2018-02-21T11:40:44.940Z,83776.00
2018-02-21T11:41:44.976Z,35840.00
2018-02-21T11:42:45.042Z,36320.00
2018-02-21T11:43:45.075Z,33728.00
2018-02-21T11:44:45.141Z,37152.00
2018-02-21T11:45:45.163Z,36672.00
2018-02-21T11:46:45.210Z,30560.00
2018-02-21T11:47:45.270Z,25760.00
2018-02-21T11:48:45.306Z,30048.00
2018-02-21T11:49:45.348Z,53280.00
2018-02-21T11:50:45.395Z,40896.00
2018-02-21T11:51:45.437Z,47040.00
2018-02-21T11:52:45.504Z,68896.00
2018-02-21T11:53:45.529Z,35680.00
2018-02-21T11:54:45.576Z,39200.00
2018-02-21T11:55:45.619Z,31072.00
2018-02-21T11:56:45.665Z,27040.00
2018-02-21T11:57:45.724Z,25408.00
2018-02-21T11:58:45.753Z,26560.00
2018-02-21T11:59:45.800Z,22624.00
2018-02-21T12:00:45.845Z,25088.00
2018-02-21T12:01:45.889Z,25120.00
2018-02-21T12:02:45.948Z,31328.00
2018-02-21T12:03:45.976Z,45056.00
2018-02-21T12:04:46.051Z,38496.00
2018-02-21T12:05:46.064Z,61632.00
2018-02-21T12:06:46.109Z,38784.00
2018-02-21T12:07:46.169Z,39072.00
2018-02-21T12:08:46.197Z,39328.00
2018-02-21T12:09:46.254Z,37952.00
2018-02-21T12:10:46.287Z,34272.00
2018-02-21T12:11:46.328Z,37088.00
2018-02-21T12:12:46.392Z,33440.00
2018-02-21T12:13:46.415Z,29504.00
2018-02-21T12:14:46.460Z,28640.00
2018-02-21T12:15:46.521Z,31552.00
2018-02-21T12:16:46.550Z,30144.00
2018-02-21T12:17:46.592Z,31808.00
2018-02-21T12:18:46.654Z,33792.00
2018-02-21T12:19:46.680Z,30528.00
2018-02-21T12:20:46.729Z,27264.00
2018-02-21T12:21:46.768Z,31584.00
2018-02-21T12:22:46.810Z,23872.00
2018-02-21T12:23:46.873Z,24160.00
2018-02-21T12:24:46.896Z,25376.00
2018-02-21T12:25:46.938Z,26848.00
2018-02-21T12:26:46.985Z,28032.00
2018-02-21T12:27:47.028Z,24480.00
2018-02-21T12:28:47.091Z,23552.00
2018-02-21T12:29:47.113Z,28352.00
2018-02-21T12:30:47.156Z,40672.00
2018-02-21T12:31:47.199Z,74848.00
2018-02-21T12:32:47.257Z,75712.00
2018-02-21T12:33:47.284Z,41824.00
2018-02-21T12:34:47.328Z,33312.00
2018-02-21T12:35:47.372Z,73504.00
2018-02-21T12:36:47.415Z,60192.00
2018-02-21T12:37:47.481Z,38368.00